地図

経路データ

SID SEASON NUMBER BASIN SUBBASIN NAME ISO_TIME NATURE LAT LON WMO_WIND WMO_PRES WMO_AGENCY TRACK_TYPE DIST2LAND LANDFALL IFLAG USA_AGENCY USA_ATCF_ID USA_LAT USA_LON USA_RECORD USA_STATUS USA_WIND USA_PRES USA_SSHS USA_R34_NE USA_R34_SE USA_R34_SW USA_R34_NW USA_R50_NE USA_R50_SE USA_R50_SW USA_R50_NW USA_R64_NE USA_R64_SE USA_R64_SW USA_R64_NW USA_POCI USA_ROCI USA_RMW USA_EYE TOKYO_LAT TOKYO_LON TOKYO_GRADE TOKYO_WIND TOKYO_PRES TOKYO_R50_DIR TOKYO_R50_LONG TOKYO_R50_SHORT TOKYO_R30_DIR TOKYO_R30_LONG TOKYO_R30_SHORT TOKYO_LAND CMA_LAT CMA_LON CMA_CAT CMA_WIND CMA_PRES HKO_LAT HKO_LON HKO_CAT HKO_WIND HKO_PRES NEWDELHI_LAT NEWDELHI_LON NEWDELHI_GRADE NEWDELHI_WIND NEWDELHI_PRES NEWDELHI_CI NEWDELHI_DP NEWDELHI_POCI REUNION_LAT REUNION_LON REUNION_TYPE REUNION_WIND REUNION_PRES REUNION_TNUM REUNION_CI REUNION_RMW REUNION_R34_NE REUNION_R34_SE REUNION_R34_SW REUNION_R34_NW REUNION_R50_NE REUNION_R50_SE REUNION_R50_SW REUNION_R50_NW REUNION_R64_NE REUNION_R64_SE REUNION_R64_SW REUNION_R64_NW BOM_LAT BOM_LON BOM_TYPE BOM_WIND BOM_PRES BOM_TNUM BOM_CI BOM_RMW BOM_R34_NE BOM_R34_SE BOM_R34_SW BOM_R34_NW BOM_R50_NE BOM_R50_SE BOM_R50_SW BOM_R50_NW BOM_R64_NE BOM_R64_SE BOM_R64_SW BOM_R64_NW BOM_ROCI BOM_POCI BOM_EYE BOM_POS_METHOD BOM_PRES_METHOD NADI_LAT NADI_LON NADI_CAT NADI_WIND NADI_PRES WELLINGTON_LAT WELLINGTON_LON WELLINGTON_WIND WELLINGTON_PRES DS824_LAT DS824_LON DS824_STAGE DS824_WIND DS824_PRES TD9636_LAT TD9636_LON TD9636_STAGE TD9636_WIND TD9636_PRES TD9635_LAT TD9635_LON TD9635_WIND TD9635_PRES TD9635_ROCI NEUMANN_LAT NEUMANN_LON NEUMANN_CLASS NEUMANN_WIND NEUMANN_PRES MLC_LAT MLC_LON MLC_CLASS MLC_WIND MLC_PRES USA_GUST BOM_GUST BOM_GUST_PER REUNION_GUST REUNION_GUST_PER USA_SEAHGT USA_SEARAD_NE USA_SEARAD_SE USA_SEARAD_SW USA_SEARAD_NW STORM_SPEED STORM_DIR
1932253N19267 1932 49 NA GM NOT_NAMED 1932-09-09 06:00:00 TS 19.2000 -93.3000 35 hurdat_atl main 92 92 O_____________ hurdat_atl AL061932 19.2000 -93.3000 TS 35 0 18 4
1932253N19267 1932 49 NA GM NOT_NAMED 1932-09-09 09:00:00 TS 20.0950 -93.2378 main 175 175 P_____________ AL061932 20.0950 -93.2378 TS 35 0 16 3
1932253N19267 1932 49 NA GM NOT_NAMED 1932-09-09 12:00:00 TS 20.8000 -93.2000 35 hurdat_atl main 251 251 O_____________ hurdat_atl AL061932 20.8000 -93.2000 TS 35 0 11 2
1932253N19267 1932 49 NA GM NOT_NAMED 1932-09-09 15:00:00 TS 21.1900 -93.1999 main 291 291 P_____________ AL061932 21.1900 -93.1999 TS 35 0 6 1
1932253N19267 1932 49 NA GM NOT_NAMED 1932-09-09 18:00:00 TS 21.4000 -93.2000 35 hurdat_atl main 297 297 O_____________ hurdat_atl AL061932 21.4000 -93.2000 TS 35 0 4 6
1932253N19267 1932 49 NA GM NOT_NAMED 1932-09-09 21:00:00 TS 21.6225 -93.1500 main 303 293 P_____________ AL061932 21.6225 -93.1500 TS 35 0 4 13
1932253N19267 1932 49 NA GM NOT_NAMED 1932-09-10 00:00:00 TS 21.8000 -93.1000 35 hurdat_atl main 300 300 O_____________ hurdat_atl AL061932 21.8000 -93.1000 TS 35 0 3 8
1932253N19267 1932 49 NA GM NOT_NAMED 1932-09-10 03:00:00 TS 21.9575 -93.1000 main 306 306 P_____________ AL061932 21.9575 -93.1000 TS 35 0 3 0
1932253N19267 1932 49 NA GM NOT_NAMED 1932-09-10 06:00:00 TS 22.1000 -93.1000 35 hurdat_atl main 310 310 O_____________ hurdat_atl AL061932 22.1000 -93.1000 TS 35 0 3 7
1932253N19267 1932 49 NA GM NOT_NAMED 1932-09-10 09:00:00 TS 22.2350 -93.0500 main 314 304 P_____________ AL061932 22.2350 -93.0500 TS 35 0 3 16
1932253N19267 1932 49 NA GM NOT_NAMED 1932-09-10 12:00:00 TS 22.4000 -93.0000 35 hurdat_atl main 314 314 O_____________ hurdat_atl AL061932 22.4000 -93.0000 TS 35 0 4 7
1932253N19267 1932 49 NA GM NOT_NAMED 1932-09-10 15:00:00 TS 22.6275 -92.9925 main 325 325 P_____________ AL061932 22.6275 -92.9925 TS 35 0 5 2
1932253N19267 1932 49 NA GM NOT_NAMED 1932-09-10 18:00:00 TS 22.9000 -93.0000 35 hurdat_atl main 343 343 O_____________ hurdat_atl AL061932 22.9000 -93.0000 TS 35 0 6 357
1932253N19267 1932 49 NA GM NOT_NAMED 1932-09-10 21:00:00 TS 23.1850 -93.0000 main 363 363 P_____________ AL061932 23.1850 -93.0000 TS 35 0 6 1
1932253N19267 1932 49 NA GM NOT_NAMED 1932-09-11 00:00:00 TS 23.5000 -93.0000 35 hurdat_atl main 386 386 O_____________ hurdat_atl AL061932 23.5000 -93.0000 TS 35 0 7 358
1932253N19267 1932 49 NA GM NOT_NAMED 1932-09-11 03:00:00 TS 23.8500 -93.0074 main 418 409 P_____________ AL061932 23.8500 -93.0074 TS 35 0 7 0
1932253N19267 1932 49 NA GM NOT_NAMED 1932-09-11 06:00:00 TS 24.2000 -93.0000 35 hurdat_atl main 443 440 O_____________ hurdat_atl AL061932 24.2000 -93.0000 TS 35 0 7 3
1932253N19267 1932 49 NA GM NOT_NAMED 1932-09-11 09:00:00 TS 24.5300 -92.9576 main 440 437 P_____________ AL061932 24.5300 -92.9576 TS 35 0 6 8
1932253N19267 1932 49 NA GM NOT_NAMED 1932-09-11 12:00:00 TS 24.8000 -92.9000 35 hurdat_atl main 441 435 O_____________ hurdat_atl AL061932 24.8000 -92.9000 TS 35 0 5 12
1932253N19267 1932 49 NA GM NOT_NAMED 1932-09-11 15:00:00 TS 24.9800 -92.8500 main 445 442 P_____________ AL061932 24.9800 -92.8500 TS 35 0 3 16
1932253N19267 1932 49 NA GM NOT_NAMED 1932-09-11 18:00:00 TS 25.1000 -92.8000 35 hurdat_atl main 442 440 O_____________ hurdat_atl AL061932 25.1000 -92.8000 TS 35 0 3 20
1932253N19267 1932 49 NA GM NOT_NAMED 1932-09-11 21:00:00 TS 25.2150 -92.7500 main 449 440 P_____________ AL061932 25.2150 -92.7500 TS 35 0 2 25
1932253N19267 1932 49 NA GM NOT_NAMED 1932-09-12 00:00:00 TS 25.3000 -92.7000 35 hurdat_atl main 447 445 O_____________ hurdat_atl AL061932 25.3000 -92.7000 TS 35 0 2 32
1932253N19267 1932 49 NA GM NOT_NAMED 1932-09-12 03:00:00 TS 25.3575 -92.6500 main 445 445 P_____________ AL061932 25.3575 -92.6500 TS 35 0 1 40
1932253N19267 1932 49 NA GM NOT_NAMED 1932-09-12 06:00:00 TS 25.4000 -92.6000 35 hurdat_atl main 445 445 O_____________ hurdat_atl AL061932 25.4000 -92.6000 TS 35 0 1 39
1932253N19267 1932 49 NA GM NOT_NAMED 1932-09-12 09:00:00 TS 25.4500 -92.5575 main 445 431 P_____________ AL061932 25.4500 -92.5575 TS 37 0 1 40
1932253N19267 1932 49 NA GM NOT_NAMED 1932-09-12 12:00:00 TS 25.5000 -92.5000 40 hurdat_atl main 431 428 O_____________ hurdat_atl AL061932 25.5000 -92.5000 TS 40 0 2 52
1932253N19267 1932 49 NA GM NOT_NAMED 1932-09-12 15:00:00 TS 25.5500 -92.4150 main 428 414 P_____________ AL061932 25.5500 -92.4150 TS 40 0 2 61
1932253N19267 1932 49 NA GM NOT_NAMED 1932-09-12 18:00:00 TS 25.6000 -92.3000 40 hurdat_atl main 414 411 O_____________ hurdat_atl AL061932 25.6000 -92.3000 TS 40 0 2 66
1932253N19267 1932 49 NA GM NOT_NAMED 1932-09-12 21:00:00 TS 25.6500 -92.1650 main 411 394 P_____________ AL061932 25.6500 -92.1650 TS 42 0 3 70
1932253N19267 1932 49 NA GM NOT_NAMED 1932-09-13 00:00:00 TS 25.7000 -92.0000 45 hurdat_atl main 394 389 O_____________ hurdat_atl AL061932 25.7000 -92.0000 TS 45 0 3 73
1932253N19267 1932 49 NA GM NOT_NAMED 1932-09-13 03:00:00 TS 25.7424 -91.8224 main 389 374 P_____________ AL061932 25.7424 -91.8224 TS 45 0 4 74
1932253N19267 1932 49 NA GM NOT_NAMED 1932-09-13 06:00:00 TS 25.8000 -91.6000 45 hurdat_atl main 374 359 O_____________ hurdat_atl AL061932 25.8000 -91.6000 TS 45 0 5 73
1932253N19267 1932 49 NA GM NOT_NAMED 1932-09-13 09:00:00 TS 25.8851 -91.3000 main 359 346 P_____________ AL061932 25.8851 -91.3000 TS 47 0 6 70
1932253N19267 1932 49 NA GM NOT_NAMED 1932-09-13 12:00:00 TS 26.0000 -91.0000 50 hurdat_atl main 346 334 O_____________ hurdat_atl AL061932 26.0000 -91.0000 TS 50 0 5 62
1932253N19267 1932 49 NA GM NOT_NAMED 1932-09-13 15:00:00 TS 26.1349 -90.7849 main 335 312 P_____________ AL061932 26.1349 -90.7849 TS 50 0 5 50
1932253N19267 1932 49 NA GM NOT_NAMED 1932-09-13 18:00:00 TS 26.3000 -90.6000 50 hurdat_atl main 312 290 O_____________ hurdat_atl AL061932 26.3000 -90.6000 TS 50 0 5 45
1932253N19267 1932 49 NA GM NOT_NAMED 1932-09-13 21:00:00 TS 26.4850 -90.3925 main 290 267 P_____________ AL061932 26.4850 -90.3925 TS 50 0 5 42
1932253N19267 1932 49 NA GM NOT_NAMED 1932-09-14 00:00:00 TS 26.7000 -90.2000 50 hurdat_atl main 267 245 O_____________ hurdat_atl AL061932 26.7000 -90.2000 TS 50 0 5 32
1932253N19267 1932 49 NA GM NOT_NAMED 1932-09-14 03:00:00 TS 26.9348 -90.0722 main 245 213 P_____________ AL061932 26.9348 -90.0722 TS 50 0 6 28
1932253N19267 1932 49 NA GM NOT_NAMED 1932-09-14 06:00:00 TS 27.2000 -89.9000 50 hurdat_atl main 213 177 O_____________ hurdat_atl AL061932 27.2000 -89.9000 TS 50 0 7 35
1932253N19267 1932 49 NA GM NOT_NAMED 1932-09-14 09:00:00 TS 27.4845 -89.6394 main 174 134 P_____________ AL061932 27.4845 -89.6394 TS 50 0 9 46
1932253N19267 1932 49 NA GM NOT_NAMED 1932-09-14 12:00:00 TS 27.8000 -89.2000 50 hurdat_atl main 134 107 O_____________ hurdat_atl AL061932 27.8000 -89.2000 TS 50 0 12 56
1932253N19267 1932 49 NA GM NOT_NAMED 1932-09-14 15:00:00 TS 28.1347 -88.5470 main 116 106 P_____________ AL061932 28.1347 -88.5470 TS 50 0 15 62
1932253N19267 1932 49 NA GM NOT_NAMED 1932-09-14 18:00:00 TS 28.5000 -87.7000 50 hurdat_atl main 143 143 O_____________ hurdat_atl AL061932 28.5000 -87.7000 TS 50 0 17 64
1932253N19267 1932 49 NA GM NOT_NAMED 1932-09-14 21:00:00 TS 28.8690 -86.7979 main 160 59 P_____________ AL061932 28.8690 -86.7979 TS 50 0 19 65
1932253N19267 1932 49 NA GM NOT_NAMED 1932-09-15 00:00:00 TS 29.3000 -85.7000 50 hurdat_atl main 53 9 O_____________ hurdat_atl AL061932 29.3000 -85.7000 TS 50 0 24 66
1932253N19267 1932 49 NA GM NOT_NAMED 1932-09-15 03:00:00 TS 29.8512 -84.3028 main 0 0 P_____________ AL061932 29.8512 -84.3028 TS 50 0 26 66
1932253N19267 1932 49 NA GM NOT_NAMED 1932-09-15 04:00:00 TS 30.0000 -83.9000 50 hurdat_atl main 9 0 O_____________ hurdat_atl AL061932 30.0000 -83.9000 L TS 50 0 19 68
1932253N19267 1932 49 NA NA NOT_NAMED 1932-09-15 06:00:00 TS 30.2000 -83.3000 45 hurdat_atl main 0 0 O_____________ hurdat_atl AL061932 30.2000 -83.3000 TS 45 0 20 65
1932253N19267 1932 49 NA NA NOT_NAMED 1932-09-15 09:00:00 TS 30.7247 -82.1131 main 0 0 P_____________ AL061932 30.7247 -82.1131 TS 42 0 25 61
1932253N19267 1932 49 NA NA NOT_NAMED 1932-09-15 12:00:00 ET 31.4000 -80.8000 40 hurdat_atl main 43 43 O_____________ hurdat_atl AL061932 31.4000 -80.8000 EX 40 -4 25 58
1932253N19267 1932 49 NA NA NOT_NAMED 1932-09-15 15:00:00 ET 32.0420 -79.6319 main 76 67 P_____________ AL061932 32.0420 -79.6319 EX 40 -4 23 55
1932253N19267 1932 49 NA NA NOT_NAMED 1932-09-15 18:00:00 ET 32.7000 -78.6000 40 hurdat_atl main 78 69 O_____________ hurdat_atl AL061932 32.7000 -78.6000 EX 40 -4 21 51
1932253N19267 1932 49 NA NA NOT_NAMED 1932-09-15 21:00:00 ET 33.3413 -77.7381 main 72 56 P_____________ AL061932 33.3413 -77.7381 EX 42 -4 19 46
1932253N19267 1932 49 NA NA NOT_NAMED 1932-09-16 00:00:00 ET 34.0000 -77.0000 45 hurdat_atl main 66 14 O_____________ hurdat_atl AL061932 34.0000 -77.0000 EX 45 -4 18 42
1932253N19267 1932 49 NA NA NOT_NAMED 1932-09-16 03:00:00 ET 34.6993 -76.2839 main 18 14 P_____________ AL061932 34.6993 -76.2839 EX 47 -4 18 39
1932253N19267 1932 49 NA NA NOT_NAMED 1932-09-16 06:00:00 ET 35.4000 -75.6000 50 hurdat_atl main 24 21 O_____________ hurdat_atl AL061932 35.4000 -75.6000 EX 50 -4 18 39
1932253N19267 1932 49 NA NA NOT_NAMED 1932-09-16 09:00:00 ET 36.0568 -74.9133 main 63 63 P_____________ AL061932 36.0568 -74.9133 EX 52 -4 17 41
1932253N19267 1932 49 NA NA NOT_NAMED 1932-09-16 12:00:00 ET 36.7000 -74.2000 55 hurdat_atl main 144 144 O_____________ hurdat_atl AL061932 36.7000 -74.2000 EX 55 -4 18 43
1932253N19267 1932 49 NA NA NOT_NAMED 1932-09-16 15:00:00 ET 37.3348 -73.4135 main 185 179 P_____________ AL061932 37.3348 -73.4135 EX 57 -4 18 44
1932253N19267 1932 49 NA NA NOT_NAMED 1932-09-16 18:00:00 ET 38.0000 -72.6000 60 hurdat_atl main 219 218 O_____________ hurdat_atl AL061932 38.0000 -72.6000 EX 60 -4 19 43
1932253N19267 1932 49 NA NA NOT_NAMED 1932-09-16 21:00:00 ET 38.6969 -71.8047 main 232 198 P_____________ AL061932 38.6969 -71.8047 EX 62 -4 20 40
1932253N19267 1932 49 NA NA NOT_NAMED 1932-09-17 00:00:00 ET 39.5000 -71.0000 65 hurdat_atl main 198 129 O_____________ hurdat_atl AL061932 39.5000 -71.0000 EX 65 -4 21 36
1932253N19267 1932 49 NA NA NOT_NAMED 1932-09-17 03:00:00 ET 40.4248 -70.1480 main 132 59 P_____________ AL061932 40.4248 -70.1480 EX 65 -4 24 33
1932253N19267 1932 49 NA NA NOT_NAMED 1932-09-17 06:00:00 ET 41.5000 -69.3000 65 hurdat_atl main 62 59 O_____________ hurdat_atl AL061932 41.5000 -69.3000 EX 65 -4 25 29
1932253N19267 1932 49 NA NA NOT_NAMED 1932-09-17 09:00:00 ET 42.6369 -68.4941 main 151 54 P_____________ AL061932 42.6369 -68.4941 EX 60 -4 28 25
1932253N19267 1932 49 NA NA NOT_NAMED 1932-09-17 12:00:00 ET 44.0000 -67.7000 55 hurdat_atl main 46 0 O_____________ hurdat_atl AL061932 44.0000 -67.7000 EX 55 -4 32 23
1932253N19267 1932 49 NA NA NOT_NAMED 1932-09-17 15:00:00 ET 45.6020 -66.7070 main 0 0 P_____________ AL061932 45.6020 -66.7070 EX 50 -4 37 19
1932253N19267 1932 49 NA NA NOT_NAMED 1932-09-17 18:00:00 ET 47.5000 -66.0000 45 hurdat_atl main 0 0 O_____________ hurdat_atl AL061932 47.5000 -66.0000 EX 45 -4 41 6
1932253N19267 1932 49 NA NA NOT_NAMED 1932-09-17 21:00:00 ET 49.7120 -66.0671 main 52 0 P_____________ AL061932 49.7120 -66.0671 EX 42 -4 45 356
1932253N19267 1932 49 NA NA NOT_NAMED 1932-09-18 00:00:00 ET 52.0000 -66.5000 40 hurdat_atl main 0 0 O_____________ hurdat_atl AL061932 52.0000 -66.5000 EX 40 -4 44 354
1932253N19267 1932 49 NA NA NOT_NAMED 1932-09-18 03:00:00 ET 54.0743 -66.8137 main 0 0 P_____________ AL061932 54.0743 -66.8137 EX 37 -4 40 356
1932253N19267 1932 49 NA NA NOT_NAMED 1932-09-18 06:00:00 ET 56.0000 -67.0000 35 hurdat_atl main 0 O_____________ hurdat_atl AL061932 56.0000 -67.0000 EX 35 -4 38 357

IBTrACS Databaseについて

本データベースは、米国NOAAが公開する1842年以降の世界の熱帯低気圧のベストトラックデータアーカイブInternational Best Track Archive for Climate Stewardship (IBTrACS)を、ウェブで閲覧しやすい形式に変換したものです。

最終更新日:2021-10-19